createdAt,value
2018-09-01T00:02:12.070Z,10.50
2018-09-01T00:04:38.791Z,10.40
2018-09-01T00:07:04.780Z,10.40
2018-09-01T00:09:30.757Z,10.40
2018-09-01T00:11:57.494Z,10.30
2018-09-01T00:14:24.199Z,10.30
2018-09-01T00:16:50.152Z,10.30
2018-09-01T00:19:16.899Z,10.20
2018-09-01T00:21:43.583Z,10.20
2018-09-01T00:24:09.547Z,10.20
2018-09-01T00:26:35.498Z,10.20
2018-09-01T00:29:02.235Z,10.10
2018-09-01T00:31:28.210Z,10.20
2018-09-01T00:33:54.179Z,10.20
2018-09-01T00:36:20.897Z,10.20
2018-09-01T00:38:46.850Z,10.20
2018-09-01T00:41:12.861Z,10.20
2018-09-01T00:43:38.822Z,10.20
2018-09-01T00:46:04.799Z,10.20
2018-09-01T00:48:31.504Z,10.20
2018-09-01T00:50:57.543Z,10.20
2018-09-01T00:53:23.495Z,10.20
2018-09-01T00:55:50.198Z,10.10
2018-09-01T00:58:16.189Z,10.10
2018-09-01T01:00:42.134Z,10.10
2018-09-01T01:03:08.093Z,10.10
2018-09-01T01:05:34.798Z,10.10
2018-09-01T01:08:00.796Z,10.10
2018-09-01T01:10:26.781Z,10.10
2018-09-01T01:12:53.525Z,10.10
2018-09-01T01:15:20.226Z,10.00
2018-09-01T01:17:46.197Z,10.00
2018-09-01T01:20:12.195Z,9.90
2018-09-01T01:22:38.920Z,10.00
2018-09-01T01:25:05.658Z,10.00
2018-09-01T01:27:31.641Z,10.10
2018-09-01T01:29:59.358Z,10.10
2018-09-01T01:32:28.328Z,10.10
2018-09-01T01:34:54.324Z,10.10
2018-09-01T01:37:20.293Z,10.00
2018-09-01T01:39:46.272Z,10.00
2018-09-01T01:42:12.971Z,10.00
2018-09-01T01:44:38.973Z,10.00
2018-09-01T01:47:05.687Z,9.90
2018-09-01T01:49:31.740Z,9.90
2018-09-01T01:51:58.404Z,9.80
2018-09-01T01:54:24.445Z,9.80
2018-09-01T01:56:50.446Z,9.80
2018-09-01T01:59:17.166Z,9.80
2018-09-01T02:01:43.155Z,9.80
2018-09-01T02:04:09.128Z,9.80
2018-09-01T02:06:35.144Z,9.80
2018-09-01T02:09:01.101Z,9.70
2018-09-01T02:11:27.188Z,9.70
2018-09-01T02:13:53.154Z,9.70
2018-09-01T02:16:19.106Z,9.60
2018-09-01T02:18:46.712Z,9.60
2018-09-01T02:21:13.408Z,9.60
2018-09-01T02:23:39.393Z,9.60
2018-09-01T02:26:05.357Z,9.50
2018-09-01T02:28:31.353Z,9.50
2018-09-01T02:30:57.296Z,9.50
2018-09-01T02:33:23.276Z,9.50
2018-09-01T02:35:49.285Z,9.50
2018-09-01T02:38:15.274Z,9.50
2018-09-01T02:40:41.264Z,9.60
2018-09-01T02:43:07.256Z,9.40
2018-09-01T02:45:33.963Z,9.40
2018-09-01T02:47:59.943Z,9.40
2018-09-01T02:50:25.935Z,9.40
2018-09-01T02:52:52.644Z,9.40
2018-09-01T02:55:18.630Z,9.40
2018-09-01T02:57:45.353Z,9.30
2018-09-01T03:00:11.341Z,9.30
2018-09-01T03:02:37.313Z,9.30
2018-09-01T03:05:03.325Z,9.40
2018-09-01T03:07:29.300Z,9.40
2018-09-01T03:09:55.303Z,9.30
2018-09-01T03:12:21.256Z,9.20
2018-09-01T03:14:47.234Z,9.20
2018-09-01T03:17:13.201Z,9.30
2018-09-01T03:19:39.162Z,9.20
2018-09-01T03:22:05.133Z,9.30
2018-09-01T03:24:31.102Z,9.20
2018-09-01T03:26:57.082Z,9.20
2018-09-01T03:29:23.096Z,9.10
2018-09-01T03:31:49.075Z,9.10
2018-09-01T03:34:15.029Z,9.20
2018-09-01T03:36:41.008Z,9.20
2018-09-01T03:39:07.709Z,9.20
2018-09-01T03:41:33.687Z,9.20
2018-09-01T03:43:59.659Z,9.20
2018-09-01T03:46:25.641Z,9.20
2018-09-01T03:48:51.627Z,9.20
2018-09-01T03:51:18.342Z,9.20
2018-09-01T03:53:44.323Z,9.10
2018-09-01T03:56:10.300Z,9.20
2018-09-01T03:58:36.260Z,9.30
2018-09-01T04:01:02.263Z,9.20
2018-09-01T04:03:28.962Z,9.30
2018-09-01T04:05:54.938Z,9.20
2018-09-01T04:08:20.916Z,9.20
2018-09-01T04:10:46.911Z,9.20
2018-09-01T04:13:12.913Z,9.20
2018-09-01T04:15:38.949Z,9.10
2018-09-01T04:18:04.916Z,9.10
2018-09-01T04:20:30.941Z,9.10
2018-09-01T04:22:56.935Z,9.10
2018-09-01T04:25:22.901Z,9.20
2018-09-01T04:27:49.633Z,9.10
2018-09-01T04:30:15.629Z,9.10
2018-09-01T04:32:41.622Z,9.10
2018-09-01T04:35:07.583Z,9.10
2018-09-01T04:37:33.591Z,9.10
2018-09-01T04:39:59.549Z,9.10
2018-09-01T04:42:25.532Z,9.00
2018-09-01T04:44:51.510Z,9.10
2018-09-01T04:47:18.216Z,9.20
2018-09-01T04:49:44.249Z,9.10
2018-09-01T04:52:10.195Z,9.20
2018-09-01T04:54:36.955Z,9.20
2018-09-01T04:57:02.927Z,9.20
2018-09-01T04:59:28.923Z,9.20
2018-09-01T05:01:54.886Z,9.20
2018-09-01T05:04:21.697Z,9.50
2018-09-01T05:06:47.940Z,9.40
2018-09-01T05:09:14.003Z,9.60
2018-09-01T05:11:40.679Z,9.80
2018-09-01T05:14:06.703Z,9.80
2018-09-01T05:16:32.669Z,9.90
2018-09-01T05:18:58.743Z,10.00
2018-09-01T05:21:24.772Z,10.10
2018-09-01T05:23:50.740Z,10.20
2018-09-01T05:26:16.738Z,10.30
2018-09-01T05:28:42.689Z,10.30
2018-09-01T05:31:08.685Z,10.40
2018-09-01T05:33:34.678Z,10.40
2018-09-01T05:36:00.662Z,10.40
2018-09-01T05:38:27.372Z,10.50
2018-09-01T05:40:53.344Z,10.50
2018-09-01T05:43:20.065Z,10.60
2018-09-01T05:45:46.777Z,10.60
2018-09-01T05:48:12.772Z,10.60
2018-09-01T05:50:38.741Z,10.60
2018-09-01T05:53:04.737Z,10.60
2018-09-01T05:55:31.435Z,10.70
2018-09-01T05:57:57.443Z,10.70
2018-09-01T06:00:24.195Z,10.80
2018-09-01T06:02:50.876Z,10.90
2018-09-01T06:05:16.865Z,10.80
2018-09-01T06:07:42.929Z,10.90
2018-09-01T06:10:08.892Z,11.10
2018-09-01T06:12:34.837Z,11.20
2018-09-01T06:15:00.814Z,11.30
2018-09-01T06:17:26.809Z,11.40
2018-09-01T06:19:52.846Z,11.40
2018-09-01T06:22:18.809Z,11.50
2018-09-01T06:24:45.575Z,11.70
2018-09-01T06:27:12.264Z,11.80
2018-09-01T06:29:38.209Z,11.80
2018-09-01T06:32:04.918Z,12.30
2018-09-01T06:34:30.909Z,12.30
2018-09-01T06:36:56.896Z,12.70
2018-09-01T06:39:23.606Z,14.20
2018-09-01T06:41:49.676Z,14.20
2018-09-01T06:44:15.640Z,15.00
2018-09-01T06:46:41.599Z,16.10
2018-09-01T06:49:08.347Z,18.00
2018-09-01T06:51:35.105Z,18.90
2018-09-01T06:54:01.861Z,19.30
2018-09-01T06:56:28.534Z,19.70
2018-09-01T06:58:54.580Z,19.60
2018-09-01T07:01:21.364Z,20.90
2018-09-01T07:03:47.332Z,20.80
2018-09-01T07:06:13.322Z,21.10
2018-09-01T07:08:39.300Z,21.30
2018-09-01T07:11:05.338Z,21.70
2018-09-01T07:13:32.032Z,21.90
2018-09-01T07:15:58.056Z,21.90
2018-09-01T07:18:24.028Z,22.40
2018-09-01T07:20:50.744Z,22.40
2018-09-01T07:23:16.696Z,22.40
2018-09-01T07:25:42.662Z,22.70
2018-09-01T07:28:08.633Z,22.10
2018-09-01T07:30:35.477Z,20.70
2018-09-01T07:33:01.389Z,20.60
2018-09-01T07:35:27.362Z,21.10
2018-09-01T07:37:53.350Z,20.70
2018-09-01T07:40:19.299Z,20.50
2018-09-01T07:42:45.275Z,20.90
2018-09-01T07:45:11.980Z,21.00
2018-09-01T07:47:37.962Z,20.90
2018-09-01T07:50:04.009Z,21.80
2018-09-01T07:52:29.902Z,21.80
2018-09-01T07:54:55.844Z,22.40
2018-09-01T07:57:21.843Z,23.40
2018-09-01T07:59:47.818Z,24.10
2018-09-01T08:02:13.776Z,25.00
2018-09-01T08:04:39.755Z,25.30
2018-09-01T08:07:05.727Z,25.90
2018-09-01T08:09:31.715Z,26.20
2018-09-01T08:11:57.696Z,26.60
2018-09-01T08:14:24.435Z,26.60
2018-09-01T08:16:50.375Z,26.60
2018-09-01T08:19:16.398Z,26.40
2018-09-01T08:21:42.382Z,26.40
2018-09-01T08:24:08.384Z,26.90
2018-09-01T08:26:35.078Z,27.40
2018-09-01T08:29:01.048Z,27.40
2018-09-01T08:31:27.841Z,27.50
2018-09-01T08:33:53.841Z,27.50
2018-09-01T08:36:20.544Z,26.30
2018-09-01T08:38:46.497Z,26.30
2018-09-01T08:41:12.477Z,26.20
2018-09-01T08:43:38.442Z,26.30
2018-09-01T08:46:04.449Z,26.50
2018-09-01T08:48:30.421Z,26.50
2018-09-01T08:50:56.420Z,26.40
2018-09-01T08:53:22.382Z,26.30
2018-09-01T08:55:48.361Z,26.50
2018-09-01T08:58:15.045Z,27.40
2018-09-01T09:00:41.016Z,27.40
2018-09-01T09:03:07.745Z,27.90
2018-09-01T09:05:34.477Z,27.50
2018-09-01T09:08:00.430Z,27.40
2018-09-01T09:10:26.381Z,26.80
2018-09-01T09:12:59.335Z,26.10
2018-09-01T09:15:25.282Z,26.30
2018-09-01T09:17:51.255Z,26.60
2018-09-01T09:20:17.951Z,26.70
2018-09-01T09:22:43.934Z,26.70
2018-09-01T09:25:10.613Z,27.50
2018-09-01T09:27:36.599Z,27.50
2018-09-01T09:30:02.556Z,28.00
2018-09-01T09:32:28.550Z,26.80
2018-09-01T09:34:54.546Z,26.90
2018-09-01T09:37:21.236Z,26.50
2018-09-01T09:39:47.203Z,26.50
2018-09-01T09:42:13.147Z,26.50
2018-09-01T09:44:39.138Z,27.20
2018-09-01T09:47:05.128Z,27.70
2018-09-01T09:49:31.119Z,27.00
2018-09-01T09:51:57.082Z,27.00
2018-09-01T09:54:23.070Z,26.60
2018-09-01T09:56:49.039Z,26.20
2018-09-01T09:59:14.996Z,26.10
2018-09-01T10:01:40.981Z,26.00
2018-09-01T10:04:06.914Z,26.00
2018-09-01T10:06:32.895Z,25.60
2018-09-01T10:08:58.895Z,25.60
2018-09-01T10:11:24.895Z,25.50
2018-09-01T10:13:50.854Z,25.00
2018-09-01T10:16:16.828Z,24.60
2018-09-01T10:18:42.790Z,24.70
2018-09-01T10:21:09.519Z,24.80
2018-09-01T10:23:36.234Z,25.00
2018-09-01T10:26:02.216Z,24.90
2018-09-01T10:28:28.196Z,24.40
2018-09-01T10:30:54.923Z,24.30
2018-09-01T10:33:20.877Z,24.20
2018-09-01T10:35:46.878Z,24.10
2018-09-01T10:38:13.636Z,23.70
2018-09-01T10:40:40.340Z,23.80
2018-09-01T10:43:06.409Z,23.80
2018-09-01T10:45:32.406Z,23.60
2018-09-01T10:47:58.385Z,23.10
2018-09-01T10:50:24.502Z,23.00
2018-09-01T10:52:50.510Z,22.90
2018-09-01T10:55:16.504Z,23.00
2018-09-01T10:57:42.454Z,23.00
2018-09-01T11:00:08.486Z,23.20
2018-09-01T11:02:34.465Z,23.10
2018-09-01T11:05:01.248Z,22.90
2018-09-01T11:07:27.206Z,22.90
2018-09-01T11:09:53.188Z,23.00
2018-09-01T11:12:19.238Z,23.30
2018-09-01T11:14:45.206Z,23.30
2018-09-01T11:17:11.209Z,23.10
2018-09-01T11:19:37.182Z,23.20
2018-09-01T11:22:03.211Z,23.60
2018-09-01T11:24:29.221Z,23.60
2018-09-01T11:26:55.261Z,23.20
2018-09-01T11:29:21.267Z,22.90
2018-09-01T11:31:48.024Z,23.10
2018-09-01T11:34:14.009Z,23.10
2018-09-01T11:36:40.009Z,23.50
2018-09-01T11:39:06.007Z,23.60
2018-09-01T11:41:31.983Z,23.70
2018-09-01T11:43:58.011Z,23.80
2018-09-01T11:46:24.008Z,23.50
2018-09-01T11:48:50.330Z,23.60
2018-09-01T11:51:16.295Z,23.50
2018-09-01T11:53:42.300Z,23.70
2018-09-01T11:56:08.313Z,23.90
2018-09-01T11:58:35.089Z,23.00
2018-09-01T12:01:01.122Z,23.00
2018-09-01T12:03:27.130Z,22.40
2018-09-01T12:05:53.129Z,22.10
2018-09-01T12:08:19.837Z,21.70
2018-09-01T12:10:45.913Z,21.70
2018-09-01T12:13:12.655Z,21.50
2018-09-01T12:15:39.427Z,21.40
2018-09-01T12:18:05.413Z,21.30
2018-09-01T12:20:32.172Z,21.30
2018-09-01T12:22:58.119Z,21.20
2018-09-01T12:25:24.102Z,21.40
2018-09-01T12:27:50.872Z,22.30
2018-09-01T12:30:16.953Z,22.20
2018-09-01T12:32:43.699Z,22.40
2018-09-01T12:35:09.675Z,22.50
2018-09-01T12:37:35.678Z,22.50
2018-09-01T12:40:01.674Z,22.70
2018-09-01T12:42:27.848Z,22.70
2018-09-01T12:44:53.826Z,22.60
2018-09-01T12:47:20.544Z,22.30
2018-09-01T12:49:46.564Z,22.30
2018-09-01T12:52:12.542Z,22.20
2018-09-01T12:54:38.552Z,22.30
2018-09-01T12:57:04.552Z,22.20
2018-09-01T12:59:30.568Z,22.10
2018-09-01T13:01:56.559Z,21.90
2018-09-01T13:04:22.592Z,22.00
2018-09-01T13:06:48.545Z,22.00
2018-09-01T13:09:15.316Z,21.80
2018-09-01T13:11:41.270Z,21.80
2018-09-01T13:14:07.294Z,21.80
2018-09-01T13:16:33.272Z,22.10
2018-09-01T13:18:59.289Z,22.60
2018-09-01T13:21:25.300Z,22.70
2018-09-01T13:23:52.058Z,22.80
2018-09-01T13:26:18.027Z,22.70
2018-09-01T13:28:43.989Z,22.70
2018-09-01T13:31:09.989Z,22.70
2018-09-01T13:33:36.730Z,22.30
2018-09-01T13:36:03.501Z,22.00
2018-09-01T13:38:30.210Z,21.90
2018-09-01T13:40:56.238Z,21.90
2018-09-01T13:43:22.991Z,21.80
2018-09-01T13:45:49.764Z,21.90
2018-09-01T13:48:15.779Z,21.90
2018-09-01T13:50:41.787Z,21.70
2018-09-01T13:53:07.771Z,21.60
2018-09-01T13:55:33.760Z,21.70
2018-09-01T13:57:59.713Z,21.90
2018-09-01T14:00:25.717Z,22.10
2018-09-01T14:02:51.720Z,22.20
2018-09-01T14:05:17.760Z,22.10
2018-09-01T14:07:43.774Z,22.20
2018-09-01T14:10:09.782Z,22.20
2018-09-01T14:12:35.801Z,22.10
2018-09-01T14:15:02.530Z,21.70
2018-09-01T14:17:28.516Z,21.70
2018-09-01T14:19:55.209Z,21.60
2018-09-01T14:22:21.956Z,21.40
2018-09-01T14:24:48.687Z,21.30
2018-09-01T14:27:15.401Z,21.10
2018-09-01T14:29:41.425Z,21.00
2018-09-01T14:32:07.439Z,20.90
2018-09-01T14:34:33.425Z,20.60
2018-09-01T14:36:59.435Z,20.60
2018-09-01T14:39:25.467Z,20.60
2018-09-01T14:41:51.418Z,20.60
2018-09-01T14:44:17.411Z,20.50
2018-09-01T14:46:43.458Z,20.60
2018-09-01T14:49:09.441Z,20.70
2018-09-01T14:51:36.149Z,20.80
2018-09-01T14:54:02.184Z,20.70
2018-09-01T14:56:28.917Z,20.60
2018-09-01T14:58:54.931Z,20.60
2018-09-01T15:01:20.869Z,20.80
2018-09-01T15:03:46.861Z,20.60
2018-09-01T15:06:12.841Z,20.50
2018-09-01T15:08:39.593Z,20.40
2018-09-01T15:11:05.567Z,20.40
2018-09-01T15:13:31.577Z,20.10
2018-09-01T15:15:57.535Z,20.10
2018-09-01T15:18:24.226Z,20.00
2018-09-01T15:20:50.236Z,20.00
2018-09-01T15:23:16.211Z,19.90
2018-09-01T15:25:42.964Z,19.80
2018-09-01T15:28:09.678Z,19.80
2018-09-01T15:30:35.689Z,19.80
2018-09-01T15:33:01.676Z,19.80
2018-09-01T15:35:27.769Z,19.80
2018-09-01T15:37:53.701Z,19.80
2018-09-01T15:40:19.691Z,19.80
2018-09-01T15:42:45.696Z,19.80
2018-09-01T15:45:11.682Z,19.90
2018-09-01T15:47:37.639Z,19.90
2018-09-01T15:50:03.636Z,19.90
2018-09-01T15:52:29.612Z,20.00
2018-09-01T15:54:55.596Z,20.00
2018-09-01T15:57:24.987Z,19.80
2018-09-01T15:59:50.975Z,19.60
2018-09-01T16:02:17.717Z,19.40
2018-09-01T16:04:43.682Z,19.40
2018-09-01T16:07:09.692Z,19.40
2018-09-01T16:09:35.705Z,19.40
2018-09-01T16:12:02.444Z,19.40
2018-09-01T16:14:28.451Z,19.30
2018-09-01T16:16:55.205Z,19.40
2018-09-01T16:19:21.208Z,19.40
2018-09-01T16:21:47.167Z,19.30
2018-09-01T16:24:13.231Z,19.10
2018-09-01T16:26:39.203Z,19.30
2018-09-01T16:29:05.214Z,19.40
2018-09-01T16:31:31.955Z,19.30
2018-09-01T16:33:58.701Z,19.40
2018-09-01T16:36:25.430Z,19.40
2018-09-01T16:38:51.458Z,19.40
2018-09-01T16:41:18.177Z,19.30
2018-09-01T16:43:44.177Z,19.30
2018-09-01T16:46:10.143Z,19.30
2018-09-01T16:48:36.870Z,19.30
2018-09-01T16:51:03.704Z,19.20
2018-09-01T16:53:29.695Z,19.20
2018-09-01T16:55:55.686Z,19.20
2018-09-01T16:58:22.356Z,19.10
2018-09-01T17:00:48.466Z,19.10
2018-09-01T17:03:14.344Z,19.10
2018-09-01T17:05:40.359Z,19.10
2018-09-01T17:08:06.329Z,19.20
2018-09-01T17:10:32.340Z,19.20
2018-09-01T17:12:59.064Z,19.10
2018-09-01T17:15:25.820Z,19.00
2018-09-01T17:17:52.530Z,19.00
2018-09-01T17:20:18.510Z,19.00
2018-09-01T17:22:44.480Z,19.00
2018-09-01T17:25:10.451Z,18.90
2018-09-01T17:27:36.477Z,18.80
2018-09-01T17:30:02.471Z,18.70
2018-09-01T17:32:29.205Z,18.50
2018-09-01T17:34:55.181Z,18.50
2018-09-01T17:37:21.203Z,18.40
2018-09-01T17:39:47.173Z,18.20
2018-09-01T17:42:13.925Z,18.10
2018-09-01T17:44:40.642Z,18.00
2018-09-01T17:47:06.758Z,17.90
2018-09-01T17:49:33.548Z,17.90
2018-09-01T17:52:00.251Z,17.80
2018-09-01T17:54:27.041Z,17.80
2018-09-01T17:56:53.009Z,17.70
2018-09-01T17:59:18.998Z,17.70
2018-09-01T18:01:44.987Z,17.70
2018-09-01T18:04:11.718Z,17.50
2018-09-01T18:06:38.429Z,17.40
2018-09-01T18:09:04.430Z,17.40
2018-09-01T18:11:30.409Z,17.40
2018-09-01T18:13:57.147Z,17.20
2018-09-01T18:16:23.913Z,17.10
2018-09-01T18:18:49.909Z,17.00
2018-09-01T18:21:16.621Z,16.90
2018-09-01T18:23:42.635Z,16.90
2018-09-01T18:26:08.611Z,16.80
2018-09-01T18:28:35.365Z,16.60
2018-09-01T18:31:01.327Z,16.60
2018-09-01T18:33:27.327Z,16.60
2018-09-01T18:35:53.385Z,16.60
2018-09-01T18:38:19.333Z,16.60
2018-09-01T18:40:46.103Z,16.50
2018-09-01T18:43:12.102Z,16.50
2018-09-01T18:45:38.105Z,16.50
2018-09-01T18:48:04.074Z,16.50
2018-09-01T18:50:30.071Z,16.40
2018-09-01T18:52:56.054Z,16.30
2018-09-01T18:55:22.078Z,16.20
2018-09-01T18:57:48.046Z,16.00
2018-09-01T19:00:14.754Z,16.00
2018-09-01T19:02:40.770Z,16.00
2018-09-01T19:05:06.736Z,16.00
2018-09-01T19:07:33.460Z,15.90
2018-09-01T19:09:59.456Z,15.80
2018-09-01T19:12:25.468Z,15.80
2018-09-01T19:14:51.446Z,15.80
2018-09-01T19:17:17.473Z,15.80
2018-09-01T19:19:43.449Z,15.60
2018-09-01T19:22:09.448Z,15.50
2018-09-01T19:24:35.444Z,15.40
2018-09-01T19:27:01.494Z,15.30
2018-09-01T19:29:28.201Z,15.20
2018-09-01T19:31:54.901Z,15.00
2018-09-01T19:34:20.920Z,15.00
2018-09-01T19:36:46.894Z,14.90
2018-09-01T19:39:12.905Z,14.90
2018-09-01T19:41:39.618Z,14.70
2018-09-01T19:44:05.620Z,14.70
2018-09-01T19:46:31.582Z,14.70
2018-09-01T19:48:57.620Z,14.60
2018-09-01T19:51:24.344Z,14.50
2018-09-01T19:53:50.294Z,14.50
2018-09-01T19:56:16.299Z,14.50
2018-09-01T19:58:43.020Z,14.30
2018-09-01T20:01:09.048Z,14.30
2018-09-01T20:03:35.040Z,14.30
2018-09-01T20:06:01.838Z,14.10
2018-09-01T20:08:28.598Z,14.10
2018-09-01T20:10:54.609Z,14.10
2018-09-01T20:13:20.591Z,14.10
2018-09-01T20:15:46.640Z,14.00
2018-09-01T20:18:12.623Z,14.00
2018-09-01T20:20:38.631Z,14.00
2018-09-01T20:23:04.563Z,13.90
2018-09-01T20:25:30.583Z,13.80
2018-09-01T20:27:56.552Z,13.80
2018-09-01T20:30:22.563Z,13.80
2018-09-01T20:32:49.307Z,13.80
2018-09-01T20:35:16.060Z,13.70
2018-09-01T20:37:42.831Z,13.60
2018-09-01T20:40:08.824Z,13.60
2018-09-01T20:42:35.551Z,13.50
2018-09-01T20:45:01.534Z,13.50
2018-09-01T20:47:27.581Z,13.50
2018-09-01T20:49:53.549Z,13.50
2018-09-01T20:52:20.291Z,13.40
2018-09-01T20:54:47.054Z,13.40
2018-09-01T20:57:13.058Z,13.30
2018-09-01T20:59:39.046Z,13.30
2018-09-01T21:02:05.766Z,13.30
2018-09-01T21:04:31.755Z,13.30
2018-09-01T21:06:57.739Z,13.30
2018-09-01T21:09:24.485Z,13.20
2018-09-01T21:11:51.222Z,13.20
2018-09-01T21:14:17.985Z,13.20
2018-09-01T21:16:43.982Z,13.20
2018-09-01T21:19:10.750Z,13.10
2018-09-01T21:21:36.723Z,13.10
2018-09-01T21:24:02.727Z,13.10
2018-09-01T21:26:28.773Z,13.10
2018-09-01T21:28:54.743Z,13.10
2018-09-01T21:31:20.736Z,13.00
2018-09-01T21:33:46.703Z,13.00
2018-09-01T21:36:12.703Z,13.00
2018-09-01T21:38:38.688Z,13.00
2018-09-01T21:41:04.699Z,13.00
2018-09-01T21:43:30.677Z,12.90
2018-09-01T21:45:56.671Z,12.90
2018-09-01T21:48:23.417Z,12.80
2018-09-01T21:50:50.131Z,12.80
2018-09-01T21:53:16.158Z,12.70
2018-09-01T21:55:42.152Z,12.70
2018-09-01T21:58:08.180Z,12.70
2018-09-01T22:00:34.174Z,12.60
2018-09-01T22:03:00.161Z,12.60
2018-09-01T22:05:26.155Z,12.60
2018-09-01T22:07:52.146Z,12.50
2018-09-01T22:10:18.132Z,12.50
2018-09-01T22:12:44.117Z,12.50
2018-09-01T22:15:10.105Z,12.50
2018-09-01T22:17:36.810Z,12.60
2018-09-01T22:20:02.802Z,12.50
2018-09-01T22:22:28.807Z,12.60
2018-09-01T22:24:54.809Z,12.50
2018-09-01T22:27:21.520Z,12.40
2018-09-01T22:29:47.653Z,12.40
2018-09-01T22:32:14.445Z,12.30
2018-09-01T22:34:40.442Z,12.30
2018-09-01T22:37:06.456Z,12.40
2018-09-01T22:39:32.468Z,12.40
2018-09-01T22:41:59.227Z,12.20
2018-09-01T22:44:25.951Z,12.20
2018-09-01T22:46:51.949Z,12.20
2018-09-01T22:49:17.917Z,12.20
2018-09-01T22:51:43.932Z,12.10
2018-09-01T22:54:10.644Z,12.00
2018-09-01T22:56:36.639Z,12.00
2018-09-01T22:59:02.613Z,12.00
2018-09-01T23:01:29.345Z,12.00
2018-09-01T23:03:55.323Z,12.00
2018-09-01T23:06:21.352Z,12.00
2018-09-01T23:08:47.305Z,12.00
2018-09-01T23:11:13.313Z,12.10
2018-09-01T23:13:39.296Z,12.00
2018-09-01T23:16:05.280Z,12.00
2018-09-01T23:18:31.287Z,12.00
2018-09-01T23:20:57.262Z,12.00
2018-09-01T23:23:23.262Z,11.90
2018-09-01T23:25:49.961Z,11.80
2018-09-01T23:28:15.955Z,11.80
2018-09-01T23:30:41.917Z,11.80
2018-09-01T23:33:07.918Z,11.80
2018-09-01T23:35:33.875Z,11.70
2018-09-01T23:37:59.873Z,11.60
2018-09-01T23:40:25.840Z,11.60
2018-09-01T23:42:51.814Z,11.60
2018-09-01T23:45:17.810Z,11.60
2018-09-01T23:47:43.779Z,11.70
2018-09-01T23:50:09.779Z,11.70
2018-09-01T23:52:35.770Z,11.70
2018-09-01T23:55:02.521Z,11.60
2018-09-01T23:57:28.497Z,11.60
2018-09-01T23:59:54.514Z,11.60
